KBVS

Skagit Regional Airport

Burlington/Mount Vernon, Washington, USA
METAR KBVS 230035Z AUTO 30005KT 10SM CLR 12/08 A2989 RMK A01
Observed Flight Rules
Oct-23 @ 00:35 UTC (26 minutes ago) Visual Flight Rules
Wind Visibility Clouds
300° at 5 knots 10 miles
  • Clear skies
Temperatures Readings
Current 12°C / 54°F
Dewpoint 8°C / 46°F
Humidity 77%
Altimeter 29.89" Hg
Pressure 1012 hPa
Elevation 43
METAR KBVS 230035Z AUTO 30005KT 10SM CLR 12/08 A2989 RMK A01
Observed Flight Rules
Oct-23 @ 00:35 UTC
(26 minutes ago)
VFR
Wind Visibility
300° at 5 knots 10 miles
Clouds
  • Clear skies
Temperature Dewpoint
12°C / 54°F 8°C / 46°F
Humidity Altimeter Pressure
77% 29.89" Hg 1012 hPa